createdAt,value
2023-07-27T00:00:31.591Z,11.83
2023-07-27T00:02:59.578Z,11.81
2023-07-27T00:05:27.574Z,11.80
2023-07-27T00:07:56.728Z,11.81
2023-07-27T00:10:25.359Z,11.81
2023-07-27T00:12:53.536Z,11.80
2023-07-27T00:15:21.403Z,11.81
2023-07-27T00:17:49.275Z,11.81
2023-07-27T00:20:17.275Z,11.79
2023-07-27T00:22:45.285Z,11.78
2023-07-27T00:25:14.554Z,11.76
2023-07-27T00:27:42.393Z,11.76
2023-07-27T00:30:10.748Z,11.76
2023-07-27T00:32:38.570Z,11.76
2023-07-27T00:35:07.881Z,11.74
2023-07-27T00:37:35.706Z,11.73
2023-07-27T00:40:03.628Z,11.72
2023-07-27T00:42:32.837Z,11.71
2023-07-27T00:45:00.768Z,11.69
2023-07-27T00:47:28.702Z,11.69
2023-07-27T00:49:56.623Z,11.68
2023-07-27T00:52:25.744Z,11.68
2023-07-27T00:54:57.941Z,11.68
2023-07-27T00:57:26.396Z,11.68
2023-07-27T00:59:55.654Z,11.69
2023-07-27T01:02:23.552Z,11.70
2023-07-27T01:04:51.420Z,11.71
2023-07-27T01:07:19.225Z,11.71
2023-07-27T01:09:47.772Z,11.72
2023-07-27T01:12:22.434Z,11.73
2023-07-27T01:15:00.245Z,11.73
2023-07-27T01:17:34.895Z,11.72
2023-07-27T01:20:15.457Z,11.73
2023-07-27T01:23:19.297Z,11.74
2023-07-27T01:26:04.177Z,11.74
2023-07-27T01:28:49.568Z,11.74
2023-07-27T01:31:22.712Z,11.74
2023-07-27T01:33:56.194Z,11.73
2023-07-27T01:36:28.126Z,11.71
2023-07-27T01:39:00.669Z,11.72
2023-07-27T01:41:29.297Z,11.71
2023-07-27T01:43:58.496Z,11.73
2023-07-27T01:46:31.169Z,11.74
2023-07-27T01:49:01.994Z,11.76
2023-07-27T01:51:31.953Z,11.76
2023-07-27T01:54:00.384Z,11.75
2023-07-27T01:56:30.750Z,11.76
2023-07-27T01:58:59.933Z,11.76
2023-07-27T02:01:30.651Z,11.76
2023-07-27T02:03:59.002Z,11.74
2023-07-27T02:06:27.304Z,11.74
2023-07-27T02:08:55.167Z,11.76
2023-07-27T02:11:25.117Z,11.78
2023-07-27T02:13:59.459Z,11.79
2023-07-27T02:16:34.126Z,11.80
2023-07-27T02:19:04.027Z,11.81
2023-07-27T02:21:34.070Z,11.82
2023-07-27T02:24:02.223Z,11.84
2023-07-27T02:26:30.804Z,11.88
2023-07-27T02:29:00.051Z,11.91
2023-07-27T02:31:29.882Z,11.93
2023-07-27T02:33:57.802Z,11.95
2023-07-27T02:36:26.398Z,11.98
2023-07-27T02:38:54.377Z,12.00
2023-07-27T02:41:23.387Z,12.01
2023-07-27T02:43:53.391Z,12.03
2023-07-27T02:46:24.463Z,12.04
2023-07-27T02:48:54.692Z,12.06
2023-07-27T02:51:22.817Z,12.07
2023-07-27T02:53:50.954Z,12.09
2023-07-27T02:56:26.515Z,12.10
2023-07-27T02:58:54.454Z,12.09
2023-07-27T03:01:23.833Z,12.10
2023-07-27T03:04:01.603Z,12.11
2023-07-27T03:06:29.630Z,12.12
2023-07-27T03:09:00.662Z,12.11
2023-07-27T03:11:28.852Z,12.13
2023-07-27T03:13:59.134Z,12.13
2023-07-27T03:16:27.057Z,12.15
2023-07-27T03:18:54.868Z,12.15
2023-07-27T03:21:24.246Z,12.16
2023-07-27T03:23:52.788Z,12.15
2023-07-27T03:26:20.759Z,12.16
2023-07-27T03:28:48.538Z,12.16
2023-07-27T03:31:18.092Z,12.15
2023-07-27T03:33:46.117Z,12.15
2023-07-27T03:36:15.198Z,12.16
2023-07-27T03:38:45.756Z,12.17
2023-07-27T03:41:13.806Z,12.18
2023-07-27T03:43:41.941Z,12.18
2023-07-27T03:46:10.214Z,12.18
2023-07-27T03:48:38.217Z,12.20
2023-07-27T03:51:06.132Z,12.21
2023-07-27T03:53:34.015Z,12.22
2023-07-27T03:56:03.321Z,12.24
2023-07-27T03:58:31.483Z,12.26
2023-07-27T04:00:59.714Z,12.28
2023-07-27T04:03:27.748Z,12.30
2023-07-27T04:05:55.828Z,12.32
2023-07-27T04:08:23.705Z,12.34
2023-07-27T04:10:51.521Z,12.35
2023-07-27T04:13:20.686Z,12.37
2023-07-27T04:15:48.478Z,12.40
2023-07-27T04:18:16.363Z,12.42
2023-07-27T04:20:44.304Z,12.43
2023-07-27T04:23:12.126Z,12.44
2023-07-27T04:25:39.968Z,12.46
2023-07-27T04:28:08.189Z,12.50
2023-07-27T04:30:37.381Z,12.52
2023-07-27T04:33:05.304Z,12.56
2023-07-27T04:35:33.160Z,12.59
2023-07-27T04:38:00.999Z,12.60
2023-07-27T04:40:28.960Z,12.63
2023-07-27T04:42:56.752Z,12.65
2023-07-27T04:45:24.677Z,12.67
2023-07-27T04:47:53.873Z,12.70
2023-07-27T04:50:21.732Z,12.72
2023-07-27T04:52:49.558Z,12.76
2023-07-27T04:55:17.529Z,12.80
2023-07-27T04:57:45.449Z,12.83
2023-07-27T05:00:14.809Z,12.87
2023-07-27T05:02:43.055Z,12.91
2023-07-27T05:05:12.385Z,12.94
2023-07-27T05:07:40.254Z,12.98
2023-07-27T05:10:08.563Z,13.03
2023-07-27T05:12:36.409Z,13.08
2023-07-27T05:15:04.376Z,13.11
2023-07-27T05:17:32.398Z,13.16
2023-07-27T05:20:00.288Z,13.20
2023-07-27T05:22:29.607Z,13.22
2023-07-27T05:24:57.476Z,13.25
2023-07-27T05:27:25.370Z,13.30
2023-07-27T05:29:53.301Z,13.34
2023-07-27T05:32:21.118Z,13.37
2023-07-27T05:34:48.947Z,13.40
2023-07-27T05:37:16.785Z,13.44
2023-07-27T05:39:45.965Z,13.50
2023-07-27T05:42:13.816Z,13.53
2023-07-27T05:44:41.689Z,13.59
2023-07-27T05:47:09.629Z,13.62
2023-07-27T05:49:37.461Z,13.64
2023-07-27T05:52:05.728Z,13.68
2023-07-27T05:54:33.746Z,13.70
2023-07-27T05:57:02.956Z,13.73
2023-07-27T05:59:30.767Z,13.75
2023-07-27T06:01:58.556Z,13.77
2023-07-27T06:04:28.625Z,13.79
2023-07-27T06:06:57.076Z,13.81
2023-07-27T06:09:24.900Z,13.83
2023-07-27T06:11:53.197Z,13.86
2023-07-27T06:14:22.347Z,13.88
2023-07-27T06:16:50.191Z,13.90
2023-07-27T06:19:18.044Z,13.89
2023-07-27T06:21:45.968Z,13.88
2023-07-27T06:24:13.860Z,13.85
2023-07-27T06:26:41.725Z,13.82
2023-07-27T06:29:09.529Z,13.83
2023-07-27T06:31:38.882Z,13.82
2023-07-27T06:34:07.072Z,13.80
2023-07-27T06:36:35.418Z,13.80
2023-07-27T06:39:03.505Z,13.77
2023-07-27T06:41:31.372Z,13.77
2023-07-27T06:44:01.205Z,13.78
2023-07-27T06:46:29.129Z,13.80
2023-07-27T06:48:58.456Z,13.82
2023-07-27T06:51:26.376Z,13.87
2023-07-27T06:53:54.151Z,13.90
2023-07-27T06:56:21.960Z,13.93
2023-07-27T06:58:49.797Z,13.96
2023-07-27T07:01:17.664Z,13.96
2023-07-27T07:03:45.614Z,13.97
2023-07-27T07:06:14.880Z,13.99
2023-07-27T07:08:42.754Z,14.01
2023-07-27T07:11:10.842Z,14.03
2023-07-27T07:13:38.677Z,14.03
2023-07-27T07:16:07.464Z,14.04
2023-07-27T07:18:35.351Z,14.06
2023-07-27T07:21:03.190Z,14.06
2023-07-27T07:23:32.406Z,14.07
2023-07-27T07:26:00.482Z,14.07
2023-07-27T07:28:27.261Z,14.06
2023-07-27T07:30:55.252Z,14.07
2023-07-27T07:33:23.781Z,14.08
2023-07-27T07:35:51.632Z,14.12
2023-07-27T07:38:19.998Z,14.18
2023-07-27T07:40:49.190Z,14.21
2023-07-27T07:43:16.977Z,14.22
2023-07-27T07:45:44.798Z,14.26
2023-07-27T07:48:12.692Z,14.29
2023-07-27T07:50:40.567Z,14.31
2023-07-27T07:53:10.360Z,14.35
2023-07-27T07:55:42.165Z,14.40
2023-07-27T07:58:11.387Z,14.47
2023-07-27T08:00:39.290Z,14.52
2023-07-27T08:03:07.389Z,14.56
2023-07-27T08:05:35.850Z,14.59
2023-07-27T08:08:03.866Z,14.63
2023-07-27T08:10:31.674Z,14.69
2023-07-27T08:12:59.650Z,14.74
2023-07-27T08:15:29.052Z,14.77
2023-07-27T08:17:56.960Z,14.82
2023-07-27T08:20:24.864Z,14.87
2023-07-27T08:22:53.036Z,14.88
2023-07-27T08:25:22.382Z,14.89
2023-07-27T08:27:51.676Z,14.89
2023-07-27T08:30:19.824Z,14.85
2023-07-27T08:32:49.694Z,14.82
2023-07-27T08:35:17.723Z,14.75
2023-07-27T08:37:45.663Z,14.68
2023-07-27T08:40:14.500Z,14.63
2023-07-27T08:42:44.748Z,14.61
2023-07-27T08:45:16.191Z,14.56
2023-07-27T08:47:44.220Z,14.52
2023-07-27T08:50:15.425Z,14.46
2023-07-27T08:52:43.417Z,14.43
2023-07-27T08:55:12.024Z,14.43
2023-07-27T08:57:40.141Z,14.43
2023-07-27T09:00:10.857Z,14.42
2023-07-27T09:02:40.113Z,14.47
2023-07-27T09:05:10.343Z,14.48
2023-07-27T09:07:39.601Z,14.50
2023-07-27T09:10:09.063Z,14.47
2023-07-27T09:12:37.963Z,14.45
2023-07-27T09:15:13.060Z,14.45
2023-07-27T09:17:41.528Z,14.41
2023-07-27T09:20:12.002Z,14.40
2023-07-27T09:22:41.250Z,14.40
2023-07-27T09:25:09.564Z,14.39
2023-07-27T09:27:44.575Z,14.40
2023-07-27T09:30:14.600Z,14.39
2023-07-27T09:32:42.493Z,14.40
2023-07-27T09:35:15.087Z,14.40
2023-07-27T09:37:47.124Z,14.41
2023-07-27T09:40:17.344Z,14.41
2023-07-27T09:42:46.401Z,14.42
2023-07-27T09:45:15.466Z,14.42
2023-07-27T09:47:44.165Z,14.41
2023-07-27T09:50:12.419Z,14.41
2023-07-27T09:52:41.460Z,14.42
2023-07-27T09:55:10.969Z,14.43
2023-07-27T09:57:39.616Z,14.44
2023-07-27T10:00:09.634Z,14.46
2023-07-27T10:02:46.169Z,14.53
2023-07-27T10:05:14.249Z,14.58
2023-07-27T10:07:53.735Z,14.62
2023-07-27T10:10:37.748Z,14.61
2023-07-27T10:13:12.978Z,14.65
2023-07-27T10:15:43.341Z,14.73
2023-07-27T10:18:14.933Z,14.76
2023-07-27T10:20:43.902Z,14.76
2023-07-27T10:23:18.217Z,14.77
2023-07-27T10:26:06.319Z,14.78
2023-07-27T10:28:38.787Z,14.82
2023-07-27T10:31:24.559Z,14.82
2023-07-27T10:34:07.518Z,14.84
2023-07-27T10:36:59.044Z,14.84
2023-07-27T10:39:32.081Z,14.84
2023-07-27T10:42:04.125Z,14.83
2023-07-27T10:44:42.565Z,14.84
2023-07-27T10:47:11.854Z,14.85
2023-07-27T10:49:40.840Z,14.86
2023-07-27T10:52:08.948Z,14.89
2023-07-27T10:54:41.554Z,14.92
2023-07-27T10:57:12.528Z,14.93
2023-07-27T10:59:42.200Z,14.93
2023-07-27T11:02:17.213Z,14.95
2023-07-27T11:04:45.490Z,14.96
2023-07-27T11:07:13.573Z,15.01
2023-07-27T11:09:46.798Z,15.01
2023-07-27T11:12:15.995Z,15.04
2023-07-27T11:14:43.834Z,15.09
2023-07-27T11:17:13.230Z,15.12
2023-07-27T11:19:41.456Z,15.14
2023-07-27T11:22:12.232Z,15.14
2023-07-27T11:24:41.698Z,15.15
2023-07-27T11:27:11.468Z,15.20
2023-07-27T11:29:41.772Z,15.26
2023-07-27T11:32:10.224Z,15.29
2023-07-27T11:34:38.457Z,15.34
2023-07-27T11:37:06.959Z,15.38
2023-07-27T11:39:35.847Z,15.39
2023-07-27T11:42:10.829Z,15.43
2023-07-27T11:44:39.472Z,15.43
2023-07-27T11:47:09.098Z,15.44
2023-07-27T11:49:38.700Z,15.44
2023-07-27T11:52:09.360Z,15.45
2023-07-27T11:54:41.905Z,15.42
2023-07-27T11:57:11.178Z,15.43
2023-07-27T11:59:39.126Z,15.45
2023-07-27T12:02:08.543Z,15.43
2023-07-27T12:04:36.590Z,15.43
2023-07-27T12:07:05.077Z,15.46
2023-07-27T12:09:39.211Z,15.47
2023-07-27T12:12:10.109Z,15.49
2023-07-27T12:14:44.116Z,15.54
2023-07-27T12:20:07.094Z,15.59
2023-07-27T12:22:34.854Z,15.60
2023-07-27T12:27:34.729Z,15.64
2023-07-27T12:30:21.111Z,15.67
2023-07-27T12:32:52.362Z,15.68
2023-07-27T12:37:51.019Z,15.73
2023-07-27T12:40:19.579Z,15.72
2023-07-27T12:42:48.145Z,15.74
2023-07-27T12:45:15.917Z,15.75
2023-07-27T12:47:45.072Z,15.80
2023-07-27T12:50:15.181Z,15.85
2023-07-27T12:52:43.767Z,15.89
2023-07-27T12:55:14.126Z,15.93
2023-07-27T12:57:42.227Z,15.96
2023-07-27T13:00:12.483Z,15.97
2023-07-27T13:02:40.367Z,16.02
2023-07-27T13:05:13.405Z,16.03
2023-07-27T13:07:44.202Z,16.12
2023-07-27T13:10:12.579Z,16.17
2023-07-27T13:12:40.900Z,16.20
2023-07-27T13:15:09.599Z,16.15
2023-07-27T13:17:38.024Z,16.20
2023-07-27T13:20:07.729Z,16.23
2023-07-27T13:22:35.679Z,16.27
2023-07-27T13:25:05.438Z,16.30
2023-07-27T13:27:33.706Z,16.36
2023-07-27T13:30:04.441Z,16.41
2023-07-27T13:32:32.869Z,16.50
2023-07-27T13:35:01.951Z,16.55
2023-07-27T13:37:30.675Z,16.67
2023-07-27T13:39:58.795Z,16.88
2023-07-27T13:42:28.054Z,17.02
2023-07-27T13:44:55.882Z,17.16
2023-07-27T13:47:23.725Z,17.42
2023-07-27T13:49:51.668Z,17.47
2023-07-27T13:52:21.543Z,17.53
2023-07-27T13:54:49.514Z,17.54
2023-07-27T13:57:17.355Z,17.46
2023-07-27T13:59:46.579Z,17.34
2023-07-27T14:02:14.366Z,17.27
2023-07-27T14:04:42.241Z,17.23
2023-07-27T14:07:10.609Z,17.26
2023-07-27T14:09:39.234Z,17.21
2023-07-27T14:12:08.246Z,17.25
2023-07-27T14:14:36.147Z,17.33
2023-07-27T14:17:05.682Z,17.34
2023-07-27T14:19:33.622Z,17.42
2023-07-27T14:22:01.413Z,17.50
2023-07-27T14:24:29.292Z,17.50
2023-07-27T14:26:57.093Z,17.57
2023-07-27T14:29:26.308Z,17.61
2023-07-27T14:31:54.285Z,17.65
2023-07-27T14:34:23.559Z,17.65
2023-07-27T14:36:51.356Z,17.64
2023-07-27T14:39:19.389Z,17.74
2023-07-27T14:41:47.241Z,17.83
2023-07-27T14:44:15.143Z,17.93
2023-07-27T14:46:42.932Z,18.00
2023-07-27T14:49:10.763Z,18.11
2023-07-27T14:51:39.995Z,18.23
2023-07-27T14:54:09.952Z,18.32
2023-07-27T14:56:37.985Z,18.45
2023-07-27T14:59:08.901Z,18.61
2023-07-27T15:01:50.800Z,18.65
2023-07-27T15:06:51.412Z,18.72
2023-07-27T15:09:19.422Z,18.83
2023-07-27T15:11:47.252Z,18.75
2023-07-27T15:14:15.077Z,18.78
2023-07-27T15:16:43.463Z,18.85
2023-07-27T15:19:11.425Z,18.91
2023-07-27T15:21:39.344Z,18.99
2023-07-27T15:24:09.122Z,19.01
2023-07-27T15:26:39.200Z,19.05
2023-07-27T15:29:07.390Z,19.18
2023-07-27T15:31:35.201Z,19.27
2023-07-27T15:34:03.119Z,19.39
2023-07-27T15:36:30.954Z,19.45
2023-07-27T15:38:58.934Z,19.44
2023-07-27T15:41:28.068Z,19.35
2023-07-27T15:43:56.294Z,19.24
2023-07-27T15:46:24.296Z,19.16
2023-07-27T15:48:52.161Z,19.09
2023-07-27T15:51:21.513Z,19.05
2023-07-27T15:53:49.573Z,19.00
2023-07-27T15:56:17.529Z,18.96
2023-07-27T15:58:46.721Z,18.86
2023-07-27T16:01:14.892Z,18.85
2023-07-27T16:03:42.970Z,18.80
2023-07-27T16:06:10.796Z,18.78
2023-07-27T16:08:38.652Z,18.79
2023-07-27T16:11:10.723Z,18.84
2023-07-27T16:13:38.580Z,18.86
2023-07-27T16:16:08.131Z,18.84
2023-07-27T16:18:37.000Z,18.84
2023-07-27T16:21:05.277Z,18.84
2023-07-27T16:23:34.554Z,18.83
2023-07-27T16:26:06.099Z,18.78
2023-07-27T16:28:34.383Z,18.75
2023-07-27T16:31:02.540Z,18.73
2023-07-27T16:33:31.786Z,18.70
2023-07-27T16:35:59.820Z,18.67
2023-07-27T16:38:27.677Z,18.68
2023-07-27T16:40:55.505Z,18.68
2023-07-27T16:43:23.338Z,18.71
2023-07-27T16:45:51.129Z,18.72
2023-07-27T16:48:19.009Z,18.65
2023-07-27T16:50:48.148Z,18.65
2023-07-27T16:53:15.993Z,18.60
2023-07-27T16:55:43.771Z,18.56
2023-07-27T16:58:11.642Z,18.49
2023-07-27T17:00:39.444Z,18.41
2023-07-27T17:03:07.467Z,18.40
2023-07-27T17:05:39.757Z,18.39
2023-07-27T17:08:11.174Z,18.31
2023-07-27T17:10:39.103Z,18.22
2023-07-27T17:13:06.932Z,18.15
2023-07-27T17:15:34.908Z,18.06
2023-07-27T17:18:02.811Z,18.00
2023-07-27T17:20:30.791Z,17.97
2023-07-27T17:22:58.606Z,17.92
2023-07-27T17:25:27.855Z,17.87
2023-07-27T17:27:55.771Z,17.84
2023-07-27T17:30:23.692Z,17.80
2023-07-27T17:32:51.537Z,17.76
2023-07-27T17:35:19.439Z,17.72
2023-07-27T17:37:47.261Z,17.68
2023-07-27T17:40:15.196Z,17.64
2023-07-27T17:42:44.465Z,17.61
2023-07-27T17:45:12.330Z,17.60
2023-07-27T17:47:40.169Z,17.61
2023-07-27T17:50:09.280Z,17.58
2023-07-27T17:52:37.277Z,17.57
2023-07-27T17:55:08.347Z,17.55
2023-07-27T17:57:36.253Z,17.53
2023-07-27T18:00:07.094Z,17.52
2023-07-27T18:02:39.723Z,17.53
2023-07-27T18:05:07.909Z,17.53
2023-07-27T18:07:36.007Z,17.51
2023-07-27T18:10:04.427Z,17.51
2023-07-27T18:12:32.301Z,17.50
2023-07-27T18:15:01.474Z,17.49
2023-07-27T18:17:33.731Z,17.46
2023-07-27T18:20:02.209Z,17.46
2023-07-27T18:22:31.258Z,17.44
2023-07-27T18:25:00.433Z,17.43
2023-07-27T18:27:28.422Z,17.42
2023-07-27T18:29:56.276Z,17.39
2023-07-27T18:32:24.113Z,17.38
2023-07-27T18:34:55.528Z,17.38
2023-07-27T18:37:23.608Z,17.35
2023-07-27T18:39:51.405Z,17.34
2023-07-27T18:42:19.395Z,17.31
2023-07-27T18:44:47.193Z,17.29
2023-07-27T18:47:15.052Z,17.27
2023-07-27T18:49:42.902Z,17.25
2023-07-27T18:52:12.148Z,17.24
2023-07-27T18:54:41.467Z,17.23
2023-07-27T18:57:09.983Z,17.22
2023-07-27T18:59:37.835Z,17.23
2023-07-27T19:02:06.495Z,17.21
2023-07-27T19:04:34.374Z,17.21
2023-07-27T19:07:02.222Z,17.21
2023-07-27T19:09:31.457Z,17.19
2023-07-27T19:11:59.273Z,17.18
2023-07-27T19:14:27.125Z,17.17
2023-07-27T19:16:54.953Z,17.16
2023-07-27T19:19:22.810Z,17.14
2023-07-27T19:21:50.948Z,17.15
2023-07-27T19:24:19.561Z,17.15
2023-07-27T19:26:48.745Z,17.12
2023-07-27T19:29:18.825Z,17.11
2023-07-27T19:31:47.737Z,17.10
2023-07-27T19:34:16.082Z,17.11
2023-07-27T19:36:43.923Z,17.09
2023-07-27T19:39:11.792Z,17.09
2023-07-27T19:41:40.880Z,17.09
2023-07-27T19:44:10.173Z,17.09
2023-07-27T19:46:38.624Z,17.12
2023-07-27T19:49:06.692Z,17.11
2023-07-27T19:51:34.987Z,17.12
2023-07-27T19:54:02.783Z,17.11
2023-07-27T19:56:30.653Z,17.10
2023-07-27T19:58:58.518Z,17.09
2023-07-27T20:01:27.720Z,17.09
2023-07-27T20:03:55.617Z,17.09
2023-07-27T20:06:23.531Z,17.10
2023-07-27T20:08:51.392Z,17.08
2023-07-27T20:11:19.300Z,17.08
2023-07-27T20:13:47.573Z,17.08
2023-07-27T20:16:15.626Z,17.05
2023-07-27T20:18:46.507Z,17.04
2023-07-27T20:21:15.631Z,17.03
2023-07-27T20:23:44.456Z,17.03
2023-07-27T20:26:12.453Z,17.01
2023-07-27T20:28:40.300Z,17.00
2023-07-27T20:31:09.582Z,17.00
2023-07-27T20:33:37.724Z,17.01
2023-07-27T20:36:07.428Z,17.01
2023-07-27T20:38:34.356Z,17.01
2023-07-27T20:41:04.456Z,16.99
2023-07-27T20:43:32.457Z,16.99
2023-07-27T20:46:01.064Z,16.99
2023-07-27T20:48:29.026Z,16.99
2023-07-27T20:50:56.940Z,16.99
2023-07-27T20:53:26.076Z,16.98
2023-07-27T20:55:53.892Z,16.97
2023-07-27T20:58:21.756Z,16.98
2023-07-27T21:00:49.637Z,16.97
2023-07-27T21:03:17.556Z,16.98
2023-07-27T21:05:45.376Z,16.97
2023-07-27T21:08:13.203Z,16.99
2023-07-27T21:10:42.367Z,16.99
2023-07-27T21:13:10.197Z,17.00
2023-07-27T21:15:38.010Z,16.98
2023-07-27T21:18:06.000Z,16.98
2023-07-27T21:20:34.843Z,16.98
2023-07-27T21:23:02.801Z,16.96
2023-07-27T21:25:30.601Z,16.96
2023-07-27T21:27:59.869Z,16.94
2023-07-27T21:30:27.843Z,16.93
2023-07-27T21:32:55.705Z,16.92
2023-07-27T21:35:23.551Z,16.91
2023-07-27T21:37:51.341Z,16.91
2023-07-27T21:40:19.143Z,16.89
2023-07-27T21:42:46.950Z,16.87
2023-07-27T21:45:16.525Z,16.85
2023-07-27T21:47:44.377Z,16.84
2023-07-27T21:50:12.319Z,16.83
2023-07-27T21:52:40.183Z,16.80
2023-07-27T21:55:08.917Z,16.80
2023-07-27T21:57:36.813Z,16.79
2023-07-27T22:00:05.421Z,16.80
2023-07-27T22:06:36.223Z,16.78
2023-07-27T22:09:04.656Z,16.78
2023-07-27T22:11:32.487Z,16.79
2023-07-27T22:14:00.369Z,16.80
2023-07-27T22:16:28.150Z,16.80
2023-07-27T22:18:56.539Z,16.81
2023-07-27T22:21:24.356Z,16.82
2023-07-27T22:23:53.864Z,16.81
2023-07-27T22:26:21.692Z,16.82
2023-07-27T22:28:49.672Z,16.83
2023-07-27T22:31:17.914Z,16.82
2023-07-27T22:33:45.779Z,16.83
2023-07-27T22:36:13.588Z,16.83
2023-07-27T22:38:41.456Z,16.82
2023-07-27T22:41:10.626Z,16.83
2023-07-27T22:43:38.532Z,16.83
2023-07-27T22:46:06.661Z,16.81
2023-07-27T22:48:34.553Z,16.81
2023-07-27T22:51:02.387Z,16.81
2023-07-27T22:53:30.197Z,16.82
2023-07-27T22:55:58.031Z,16.82
2023-07-27T22:58:27.273Z,16.84
2023-07-27T23:00:55.324Z,16.84
2023-07-27T23:03:23.228Z,16.85
2023-07-27T23:05:51.069Z,16.84
2023-07-27T23:08:20.597Z,16.85
2023-07-27T23:10:48.690Z,16.87
2023-07-27T23:13:16.544Z,16.87
2023-07-27T23:15:45.741Z,16.87
2023-07-27T23:18:14.636Z,16.86
2023-07-27T23:20:42.506Z,16.85
2023-07-27T23:23:10.383Z,16.86
2023-07-27T23:25:38.237Z,16.85
2023-07-27T23:28:06.120Z,16.85
2023-07-27T23:30:34.104Z,16.86
2023-07-27T23:33:03.334Z,16.84
2023-07-27T23:35:31.249Z,16.82
2023-07-27T23:37:59.057Z,16.82
2023-07-27T23:40:26.886Z,16.83
2023-07-27T23:42:54.780Z,16.84
2023-07-27T23:45:22.780Z,16.85
2023-07-27T23:47:50.670Z,16.86
2023-07-27T23:50:19.941Z,16.86
2023-07-27T23:52:47.813Z,16.86
2023-07-27T23:55:16.166Z,16.88
2023-07-27T23:57:44.236Z,16.88
